sensor_id;sensor_type;location;lat;lon;timestamp;temperature;humidity
22383;DHT22;11359;45.802;13.530;2022-08-18T00:02:27;27.70;58.20
22383;DHT22;11359;45.802;13.530;2022-08-18T00:04:54;27.70;58.20
22383;DHT22;11359;45.802;13.530;2022-08-18T00:07:27;27.60;58.30
22383;DHT22;11359;45.802;13.530;2022-08-18T00:09:54;27.70;58.30
22383;DHT22;11359;45.802;13.530;2022-08-18T00:12:52;27.60;58.20
22383;DHT22;11359;45.802;13.530;2022-08-18T00:15:15;27.60;58.30
22383;DHT22;11359;45.802;13.530;2022-08-18T00:17:41;27.60;58.30
22383;DHT22;11359;45.802;13.530;2022-08-18T00:20:10;27.60;58.30
22383;DHT22;11359;45.802;13.530;2022-08-18T00:22:37;27.50;58.30
22383;DHT22;11359;45.802;13.530;2022-08-18T00:25:05;27.50;58.30
22383;DHT22;11359;45.802;13.530;2022-08-18T00:27:31;27.50;58.40
22383;DHT22;11359;45.802;13.530;2022-08-18T00:29:59;27.50;58.40
22383;DHT22;11359;45.802;13.530;2022-08-18T00:32:29;27.50;58.50
22383;DHT22;11359;45.802;13.530;2022-08-18T00:34:55;27.50;58.50
22383;DHT22;11359;45.802;13.530;2022-08-18T00:37:22;27.50;58.60
22383;DHT22;11359;45.802;13.530;2022-08-18T00:39:50;27.40;58.40
22383;DHT22;11359;45.802;13.530;2022-08-18T00:42:20;27.40;58.50
22383;DHT22;11359;45.802;13.530;2022-08-18T00:44:47;27.40;58.50
22383;DHT22;11359;45.802;13.530;2022-08-18T00:47:13;27.30;58.50
22383;DHT22;11359;45.802;13.530;2022-08-18T00:49:41;27.40;58.60
22383;DHT22;11359;45.802;13.530;2022-08-18T00:52:08;27.30;58.60
22383;DHT22;11359;45.802;13.530;2022-08-18T00:54:36;27.30;58.60
22383;DHT22;11359;45.802;13.530;2022-08-18T00:57:06;27.30;58.60
22383;DHT22;11359;45.802;13.530;2022-08-18T00:59:48;27.30;58.60
22383;DHT22;11359;45.802;13.530;2022-08-18T01:02:21;27.20;58.60
22383;DHT22;11359;45.802;13.530;2022-08-18T01:04:53;27.20;58.60
22383;DHT22;11359;45.802;13.530;2022-08-18T01:07:27;27.20;58.60
22383;DHT22;11359;45.802;13.530;2022-08-18T01:09:55;27.20;58.60
22383;DHT22;11359;45.802;13.530;2022-08-18T01:12:26;27.20;58.70
22383;DHT22;11359;45.802;13.530;2022-08-18T01:14:52;27.20;58.70
22383;DHT22;11359;45.802;13.530;2022-08-18T01:17:19;27.10;58.70
22383;DHT22;11359;45.802;13.530;2022-08-18T01:20:04;27.10;58.70
22383;DHT22;11359;45.802;13.530;2022-08-18T01:23:07;27.10;58.70
22383;DHT22;11359;45.802;13.530;2022-08-18T01:25:36;27.10;58.70
22383;DHT22;11359;45.802;13.530;2022-08-18T01:28:20;27.10;58.80
22383;DHT22;11359;45.802;13.530;2022-08-18T01:30:50;27.00;58.70
22383;DHT22;11359;45.802;13.530;2022-08-18T01:33:17;27.00;58.80
22383;DHT22;11359;45.802;13.530;2022-08-18T01:35:46;27.00;58.80
22383;DHT22;11359;45.802;13.530;2022-08-18T01:38:18;27.00;58.80
22383;DHT22;11359;45.802;13.530;2022-08-18T01:40:45;27.00;58.80
22383;DHT22;11359;45.802;13.530;2022-08-18T01:43:12;26.90;58.80
22383;DHT22;11359;45.802;13.530;2022-08-18T01:45:39;26.90;58.80
22383;DHT22;11359;45.802;13.530;2022-08-18T01:48:05;26.90;58.90
22383;DHT22;11359;45.802;13.530;2022-08-18T01:50:31;26.90;58.90
22383;DHT22;11359;45.802;13.530;2022-08-18T01:52:59;26.90;58.90
22383;DHT22;11359;45.802;13.530;2022-08-18T01:55:25;26.90;58.90
22383;DHT22;11359;45.802;13.530;2022-08-18T01:57:54;26.90;58.90
22383;DHT22;11359;45.802;13.530;2022-08-18T02:00:20;26.90;58.90
22383;DHT22;11359;45.802;13.530;2022-08-18T02:02:48;26.80;58.90
22383;DHT22;11359;45.802;13.530;2022-08-18T02:05:18;26.80;58.90
22383;DHT22;11359;45.802;13.530;2022-08-18T02:07:46;26.80;58.90
22383;DHT22;11359;45.802;13.530;2022-08-18T02:10:11;26.80;59.00
22383;DHT22;11359;45.802;13.530;2022-08-18T02:12:38;26.70;59.00
22383;DHT22;11359;45.802;13.530;2022-08-18T02:15:06;26.80;59.00
22383;DHT22;11359;45.802;13.530;2022-08-18T02:17:42;26.80;59.10
22383;DHT22;11359;45.802;13.530;2022-08-18T02:20:12;26.70;59.00
22383;DHT22;11359;45.802;13.530;2022-08-18T02:22:38;26.70;59.00
22383;DHT22;11359;45.802;13.530;2022-08-18T02:25:04;26.70;59.00
22383;DHT22;11359;45.802;13.530;2022-08-18T02:27:30;26.70;59.10
22383;DHT22;11359;45.802;13.530;2022-08-18T02:29:59;26.70;59.10
22383;DHT22;11359;45.802;13.530;2022-08-18T02:32:25;26.70;59.10
22383;DHT22;11359;45.802;13.530;2022-08-18T02:34:51;26.70;59.10
22383;DHT22;11359;45.802;13.530;2022-08-18T02:37:16;26.60;59.10
22383;DHT22;11359;45.802;13.530;2022-08-18T02:39:42;26.60;59.10
22383;DHT22;11359;45.802;13.530;2022-08-18T02:42:08;26.60;59.20
22383;DHT22;11359;45.802;13.530;2022-08-18T02:44:34;26.60;59.20
22383;DHT22;11359;45.802;13.530;2022-08-18T02:47:00;26.60;59.20
22383;DHT22;11359;45.802;13.530;2022-08-18T02:49:26;26.60;59.20
22383;DHT22;11359;45.802;13.530;2022-08-18T02:51:53;26.60;59.20
22383;DHT22;11359;45.802;13.530;2022-08-18T02:54:20;26.60;59.20
22383;DHT22;11359;45.802;13.530;2022-08-18T02:56:48;26.60;59.20
22383;DHT22;11359;45.802;13.530;2022-08-18T02:59:26;26.60;59.30
22383;DHT22;11359;45.802;13.530;2022-08-18T03:01:54;26.60;59.20
22383;DHT22;11359;45.802;13.530;2022-08-18T03:04:23;26.50;59.10
22383;DHT22;11359;45.802;13.530;2022-08-18T03:06:54;26.50;59.20
22383;DHT22;11359;45.802;13.530;2022-08-18T03:09:21;26.50;59.10
22383;DHT22;11359;45.802;13.530;2022-08-18T03:11:47;26.50;59.10
22383;DHT22;11359;45.802;13.530;2022-08-18T03:14:14;26.50;59.10
22383;DHT22;11359;45.802;13.530;2022-08-18T03:16:45;26.50;59.10
22383;DHT22;11359;45.802;13.530;2022-08-18T03:19:12;26.50;59.10
22383;DHT22;11359;45.802;13.530;2022-08-18T03:21:43;26.50;59.10
22383;DHT22;11359;45.802;13.530;2022-08-18T03:24:09;26.40;59.10
22383;DHT22;11359;45.802;13.530;2022-08-18T03:26:39;26.40;59.10
22383;DHT22;11359;45.802;13.530;2022-08-18T03:29:06;26.40;59.10
22383;DHT22;11359;45.802;13.530;2022-08-18T03:31:32;26.40;59.10
22383;DHT22;11359;45.802;13.530;2022-08-18T03:33:59;26.40;59.10
22383;DHT22;11359;45.802;13.530;2022-08-18T03:36:30;26.40;59.10
22383;DHT22;11359;45.802;13.530;2022-08-18T03:38:57;26.40;59.10
22383;DHT22;11359;45.802;13.530;2022-08-18T03:41:24;26.40;59.10
22383;DHT22;11359;45.802;13.530;2022-08-18T03:43:51;26.30;59.00
22383;DHT22;11359;45.802;13.530;2022-08-18T03:46:19;26.30;59.00
22383;DHT22;11359;45.802;13.530;2022-08-18T03:48:47;26.30;59.00
22383;DHT22;11359;45.802;13.530;2022-08-18T03:51:20;26.30;59.00
22383;DHT22;11359;45.802;13.530;2022-08-18T03:53:47;26.30;59.00
22383;DHT22;11359;45.802;13.530;2022-08-18T03:56:19;26.30;59.00
22383;DHT22;11359;45.802;13.530;2022-08-18T03:58:51;26.30;59.00
22383;DHT22;11359;45.802;13.530;2022-08-18T04:01:20;26.30;59.00
22383;DHT22;11359;45.802;13.530;2022-08-18T04:03:49;26.30;59.00
22383;DHT22;11359;45.802;13.530;2022-08-18T04:06:21;26.30;59.00
22383;DHT22;11359;45.802;13.530;2022-08-18T04:08:53;26.20;59.00
22383;DHT22;11359;45.802;13.530;2022-08-18T04:11:19;26.30;59.00
22383;DHT22;11359;45.802;13.530;2022-08-18T04:13:45;26.20;59.00
22383;DHT22;11359;45.802;13.530;2022-08-18T04:16:10;26.20;59.00
22383;DHT22;11359;45.802;13.530;2022-08-18T04:18:36;26.20;59.00
22383;DHT22;11359;45.802;13.530;2022-08-18T04:21:04;26.20;59.10
22383;DHT22;11359;45.802;13.530;2022-08-18T04:23:33;26.20;59.10
22383;DHT22;11359;45.802;13.530;2022-08-18T04:26:00;26.20;59.10
22383;DHT22;11359;45.802;13.530;2022-08-18T04:28:27;26.20;59.10
22383;DHT22;11359;45.802;13.530;2022-08-18T04:30:53;26.20;59.20
22383;DHT22;11359;45.802;13.530;2022-08-18T04:33:21;26.20;59.20
22383;DHT22;11359;45.802;13.530;2022-08-18T04:35:47;26.20;59.30
22383;DHT22;11359;45.802;13.530;2022-08-18T04:38:13;26.20;59.30
22383;DHT22;11359;45.802;13.530;2022-08-18T04:40:39;26.20;59.30
22383;DHT22;11359;45.802;13.530;2022-08-18T04:43:07;26.20;59.30
22383;DHT22;11359;45.802;13.530;2022-08-18T04:45:46;26.20;59.30
22383;DHT22;11359;45.802;13.530;2022-08-18T04:48:12;26.20;59.30
22383;DHT22;11359;45.802;13.530;2022-08-18T04:50:40;26.20;59.30
22383;DHT22;11359;45.802;13.530;2022-08-18T04:53:06;26.20;59.30
22383;DHT22;11359;45.802;13.530;2022-08-18T04:55:52;26.20;59.30
22383;DHT22;11359;45.802;13.530;2022-08-18T04:58:21;26.20;59.30
22383;DHT22;11359;45.802;13.530;2022-08-18T05:00:56;26.20;59.40
22383;DHT22;11359;45.802;13.530;2022-08-18T05:03:23;26.20;59.30
22383;DHT22;11359;45.802;13.530;2022-08-18T05:05:55;26.20;59.40
22383;DHT22;11359;45.802;13.530;2022-08-18T05:08:23;26.30;59.50
22383;DHT22;11359;45.802;13.530;2022-08-18T05:10:56;26.30;59.50
22383;DHT22;11359;45.802;13.530;2022-08-18T05:13:24;26.30;59.50
22383;DHT22;11359;45.802;13.530;2022-08-18T05:15:58;26.30;59.50
22383;DHT22;11359;45.802;13.530;2022-08-18T05:18:32;26.30;59.50
22383;DHT22;11359;45.802;13.530;2022-08-18T05:20:59;26.30;59.50
22383;DHT22;11359;45.802;13.530;2022-08-18T05:23:26;26.30;59.50
22383;DHT22;11359;45.802;13.530;2022-08-18T05:25:59;26.30;59.50
22383;DHT22;11359;45.802;13.530;2022-08-18T05:28:25;26.40;59.50
22383;DHT22;11359;45.802;13.530;2022-08-18T05:30:51;26.40;59.50
22383;DHT22;11359;45.802;13.530;2022-08-18T05:33:16;26.40;59.50
22383;DHT22;11359;45.802;13.530;2022-08-18T05:35:46;26.40;59.40
22383;DHT22;11359;45.802;13.530;2022-08-18T05:38:28;26.40;59.40
22383;DHT22;11359;45.802;13.530;2022-08-18T05:41:13;26.40;59.40
22383;DHT22;11359;45.802;13.530;2022-08-18T05:43:40;26.50;59.50
22383;DHT22;11359;45.802;13.530;2022-08-18T05:46:08;26.50;59.50
22383;DHT22;11359;45.802;13.530;2022-08-18T05:48:37;26.50;59.50
22383;DHT22;11359;45.802;13.530;2022-08-18T05:51:23;26.60;59.60
22383;DHT22;11359;45.802;13.530;2022-08-18T05:53:50;26.60;59.60
22383;DHT22;11359;45.802;13.530;2022-08-18T05:56:36;26.60;59.60
22383;DHT22;11359;45.802;13.530;2022-08-18T05:59:32;26.70;59.60
22383;DHT22;11359;45.802;13.530;2022-08-18T06:04:50;26.70;59.50
22383;DHT22;11359;45.802;13.530;2022-08-18T06:07:40;26.80;59.50
22383;DHT22;11359;45.802;13.530;2022-08-18T06:10:08;26.80;59.50
22383;DHT22;11359;45.802;13.530;2022-08-18T06:12:39;26.80;59.40
22383;DHT22;11359;45.802;13.530;2022-08-18T06:20:41;26.90;59.30
22383;DHT22;11359;45.802;13.530;2022-08-18T06:23:21;27.00;59.20
22383;DHT22;11359;45.802;13.530;2022-08-18T06:28:22;27.00;59.20
22383;DHT22;11359;45.802;13.530;2022-08-18T06:31:05;27.00;59.20
22383;DHT22;11359;45.802;13.530;2022-08-18T06:41:38;27.20;59.20
22383;DHT22;11359;45.802;13.530;2022-08-18T06:44:48;27.20;59.10
22383;DHT22;11359;45.802;13.530;2022-08-18T06:52:27;27.40;59.00
22383;DHT22;11359;45.802;13.530;2022-08-18T06:55:03;27.40;58.90
22383;DHT22;11359;45.802;13.530;2022-08-18T07:00:08;27.50;58.60
22383;DHT22;11359;45.802;13.530;2022-08-18T07:02:46;27.50;58.40
22383;DHT22;11359;45.802;13.530;2022-08-18T07:07:40;27.50;58.30
22383;DHT22;11359;45.802;13.530;2022-08-18T07:10:29;27.50;58.30
22383;DHT22;11359;45.802;13.530;2022-08-18T07:13:24;27.50;58.40
22383;DHT22;11359;45.802;13.530;2022-08-18T07:15:53;27.60;58.40
22383;DHT22;11359;45.802;13.530;2022-08-18T07:18:25;27.60;58.40
22383;DHT22;11359;45.802;13.530;2022-08-18T07:21:01;27.60;58.40
22383;DHT22;11359;45.802;13.530;2022-08-18T07:23:32;27.60;58.40
22383;DHT22;11359;45.802;13.530;2022-08-18T07:26:17;27.60;58.40
22383;DHT22;11359;45.802;13.530;2022-08-18T07:28:48;27.60;58.40
22383;DHT22;11359;45.802;13.530;2022-08-18T07:34:09;27.70;58.50
22383;DHT22;11359;45.802;13.530;2022-08-18T07:37:08;27.80;58.50
22383;DHT22;11359;45.802;13.530;2022-08-18T07:42:31;27.90;58.50
22383;DHT22;11359;45.802;13.530;2022-08-18T07:45:08;27.90;58.50
22383;DHT22;11359;45.802;13.530;2022-08-18T07:47:39;27.90;58.50
22383;DHT22;11359;45.802;13.530;2022-08-18T07:50:07;28.00;58.50
22383;DHT22;11359;45.802;13.530;2022-08-18T07:53:07;27.90;58.40
22383;DHT22;11359;45.802;13.530;2022-08-18T07:55:39;28.00;58.40
22383;DHT22;11359;45.802;13.530;2022-08-18T08:06:24;28.00;57.80
22383;DHT22;11359;45.802;13.530;2022-08-18T08:11:56;28.10;57.90
22383;DHT22;11359;45.802;13.530;2022-08-18T08:30:16;28.20;57.30
22383;DHT22;11359;45.802;13.530;2022-08-18T08:35:50;28.30;57.20
22383;DHT22;11359;45.802;13.530;2022-08-18T08:38:23;28.30;57.10
22383;DHT22;11359;45.802;13.530;2022-08-18T08:40:58;28.40;57.00
22383;DHT22;11359;45.802;13.530;2022-08-18T08:43:31;28.40;57.00
22383;DHT22;11359;45.802;13.530;2022-08-18T08:48:31;28.40;56.80
22383;DHT22;11359;45.802;13.530;2022-08-18T08:53:55;28.50;56.60
22383;DHT22;11359;45.802;13.530;2022-08-18T08:56:29;28.60;56.50
22383;DHT22;11359;45.802;13.530;2022-08-18T08:58:58;28.60;56.30
22383;DHT22;11359;45.802;13.530;2022-08-18T09:07:03;28.60;55.80
22383;DHT22;11359;45.802;13.530;2022-08-18T09:12:53;28.70;55.50
22383;DHT22;11359;45.802;13.530;2022-08-18T09:25:49;28.80;55.00
22383;DHT22;11359;45.802;13.530;2022-08-18T09:28:16;28.80;54.80
22383;DHT22;11359;45.802;13.530;2022-08-18T09:42:00;29.00;54.30
22383;DHT22;11359;45.802;13.530;2022-08-18T09:47:13;29.00;54.30
22383;DHT22;11359;45.802;13.530;2022-08-18T09:57:34;29.20;53.90
22383;DHT22;11359;45.802;13.530;2022-08-18T10:07:50;29.40;53.40
22383;DHT22;11359;45.802;13.530;2022-08-18T10:21:22;29.60;53.00
22383;DHT22;11359;45.802;13.530;2022-08-18T10:34:39;29.80;52.80
22383;DHT22;11359;45.802;13.530;2022-08-18T10:39:58;30.00;52.30
22383;DHT22;11359;45.802;13.530;2022-08-18T10:45:27;30.00;51.70
22383;DHT22;11359;45.802;13.530;2022-08-18T10:50:38;30.00;51.40
22383;DHT22;11359;45.802;13.530;2022-08-18T10:53:29;30.10;51.40
22383;DHT22;11359;45.802;13.530;2022-08-18T11:02:12;30.10;51.10
22383;DHT22;11359;45.802;13.530;2022-08-18T11:04:47;30.10;51.00
22383;DHT22;11359;45.802;13.530;2022-08-18T11:07:20;30.10;51.00
22383;DHT22;11359;45.802;13.530;2022-08-18T11:09:58;30.10;51.00
22383;DHT22;11359;45.802;13.530;2022-08-18T11:15:29;30.10;50.70
22383;DHT22;11359;45.802;13.530;2022-08-18T11:20:38;30.10;50.40
22383;DHT22;11359;45.802;13.530;2022-08-18T11:23:12;30.20;50.20
22383;DHT22;11359;45.802;13.530;2022-08-18T11:25:39;30.10;50.10
22383;DHT22;11359;45.802;13.530;2022-08-18T11:28:32;30.10;50.00
22383;DHT22;11359;45.802;13.530;2022-08-18T11:30:58;30.10;50.00
22383;DHT22;11359;45.802;13.530;2022-08-18T11:33:24;30.10;50.00
22383;DHT22;11359;45.802;13.530;2022-08-18T11:35:54;30.00;49.90
22383;DHT22;11359;45.802;13.530;2022-08-18T11:38:26;30.00;49.90
22383;DHT22;11359;45.802;13.530;2022-08-18T11:41:17;30.00;49.90
22383;DHT22;11359;45.802;13.530;2022-08-18T11:43:45;30.00;49.90
22383;DHT22;11359;45.802;13.530;2022-08-18T11:46:36;29.90;50.00
22383;DHT22;11359;45.802;13.530;2022-08-18T11:49:27;29.90;50.20
22383;DHT22;11359;45.802;13.530;2022-08-18T11:52:02;29.90;50.60
22383;DHT22;11359;45.802;13.530;2022-08-18T11:54:39;29.80;52.30
22383;DHT22;11359;45.802;13.530;2022-08-18T11:59:57;29.30;53.00
22383;DHT22;11359;45.802;13.530;2022-08-18T12:02:24;29.10;53.50
22383;DHT22;11359;45.802;13.530;2022-08-18T12:04:52;28.80;54.00
22383;DHT22;11359;45.802;13.530;2022-08-18T12:07:34;28.50;54.80
22383;DHT22;11359;45.802;13.530;2022-08-18T12:10:23;28.20;56.00
22383;DHT22;11359;45.802;13.530;2022-08-18T12:12:51;28.00;57.80
22383;DHT22;11359;45.802;13.530;2022-08-18T12:17:44;27.70;60.50
22383;DHT22;11359;45.802;13.530;2022-08-18T12:20:12;27.60;61.90
22383;DHT22;11359;45.802;13.530;2022-08-18T12:22:40;27.50;62.80
22383;DHT22;11359;45.802;13.530;2022-08-18T12:25:10;27.50;63.50
22383;DHT22;11359;45.802;13.530;2022-08-18T12:27:36;27.40;63.70
22383;DHT22;11359;45.802;13.530;2022-08-18T12:30:03;27.40;64.20
22383;DHT22;11359;45.802;13.530;2022-08-18T12:32:31;27.30;64.40
22383;DHT22;11359;45.802;13.530;2022-08-18T12:34:58;27.30;65.10
22383;DHT22;11359;45.802;13.530;2022-08-18T12:37:26;27.20;65.60
22383;DHT22;11359;45.802;13.530;2022-08-18T12:39:53;27.20;65.50
22383;DHT22;11359;45.802;13.530;2022-08-18T12:42:19;27.10;65.00
22383;DHT22;11359;45.802;13.530;2022-08-18T12:44:46;27.00;64.90
22383;DHT22;11359;45.802;13.530;2022-08-18T12:47:15;26.90;65.40
22383;DHT22;11359;45.802;13.530;2022-08-18T12:49:41;26.80;65.80
22383;DHT22;11359;45.802;13.530;2022-08-18T12:52:08;26.80;66.20
22383;DHT22;11359;45.802;13.530;2022-08-18T12:54:34;26.70;66.60
22383;DHT22;11359;45.802;13.530;2022-08-18T12:57:02;26.70;66.90
22383;DHT22;11359;45.802;13.530;2022-08-18T12:59:28;26.60;67.20
22383;DHT22;11359;45.802;13.530;2022-08-18T13:01:54;26.60;67.60
22383;DHT22;11359;45.802;13.530;2022-08-18T13:04:20;26.50;68.00
22383;DHT22;11359;45.802;13.530;2022-08-18T13:06:55;26.60;68.80
22383;DHT22;11359;45.802;13.530;2022-08-18T13:09:22;26.50;68.50
22383;DHT22;11359;45.802;13.530;2022-08-18T13:11:48;26.50;68.40
22383;DHT22;11359;45.802;13.530;2022-08-18T13:14:15;26.40;68.40
22383;DHT22;11359;45.802;13.530;2022-08-18T13:16:42;26.40;69.10
22383;DHT22;11359;45.802;13.530;2022-08-18T13:19:12;26.50;69.90
22383;DHT22;11359;45.802;13.530;2022-08-18T13:21:38;26.50;70.50
22383;DHT22;11359;45.802;13.530;2022-08-18T13:24:04;26.50;70.60
22383;DHT22;11359;45.802;13.530;2022-08-18T13:26:33;26.50;70.20
22383;DHT22;11359;45.802;13.530;2022-08-18T13:29:01;26.50;69.80
22383;DHT22;11359;45.802;13.530;2022-08-18T13:31:27;26.50;69.80
22383;DHT22;11359;45.802;13.530;2022-08-18T13:33:54;26.50;70.10
22383;DHT22;11359;45.802;13.530;2022-08-18T13:36:24;26.50;70.40
22383;DHT22;11359;45.802;13.530;2022-08-18T13:38:50;26.50;70.60
22383;DHT22;11359;45.802;13.530;2022-08-18T13:41:20;26.60;71.20
22383;DHT22;11359;45.802;13.530;2022-08-18T13:43:46;26.60;72.00
22383;DHT22;11359;45.802;13.530;2022-08-18T13:46:16;26.70;72.30
22383;DHT22;11359;45.802;13.530;2022-08-18T13:48:43;26.70;72.40
22383;DHT22;11359;45.802;13.530;2022-08-18T13:51:14;26.80;72.70
22383;DHT22;11359;45.802;13.530;2022-08-18T13:53:42;26.90;73.00
22383;DHT22;11359;45.802;13.530;2022-08-18T13:56:07;27.00;73.10
22383;DHT22;11359;45.802;13.530;2022-08-18T13:58:35;27.00;73.10
22383;DHT22;11359;45.802;13.530;2022-08-18T14:01:03;27.10;73.20
22383;DHT22;11359;45.802;13.530;2022-08-18T14:03:30;27.20;73.50
22383;DHT22;11359;45.802;13.530;2022-08-18T14:05:57;27.30;73.60
22383;DHT22;11359;45.802;13.530;2022-08-18T14:08:25;27.40;74.10
22383;DHT22;11359;45.802;13.530;2022-08-18T14:10:53;27.50;74.80
22383;DHT22;11359;45.802;13.530;2022-08-18T14:13:20;27.60;75.20
22383;DHT22;11359;45.802;13.530;2022-08-18T14:15:47;27.80;76.00
22383;DHT22;11359;45.802;13.530;2022-08-18T14:18:13;27.90;75.10
22383;DHT22;11359;45.802;13.530;2022-08-18T14:20:39;28.00;75.20
22383;DHT22;11359;45.802;13.530;2022-08-18T14:23:23;28.10;75.20
22383;DHT22;11359;45.802;13.530;2022-08-18T14:26:09;28.30;75.70
22383;DHT22;11359;45.802;13.530;2022-08-18T14:28:53;28.50;76.90
22383;DHT22;11359;45.802;13.530;2022-08-18T14:31:19;28.70;77.90
22383;DHT22;11359;45.802;13.530;2022-08-18T14:33:45;28.90;78.40
22383;DHT22;11359;45.802;13.530;2022-08-18T14:36:12;29.10;78.90
22383;DHT22;11359;45.802;13.530;2022-08-18T14:38:38;29.40;79.40
22383;DHT22;11359;45.802;13.530;2022-08-18T14:41:07;29.60;79.70
22383;DHT22;11359;45.802;13.530;2022-08-18T14:43:34;29.90;80.20
22383;DHT22;11359;45.802;13.530;2022-08-18T14:46:01;30.10;80.20
22383;DHT22;11359;45.802;13.530;2022-08-18T14:48:27;30.30;80.10
22383;DHT22;11359;45.802;13.530;2022-08-18T14:50:55;30.50;79.90
22383;DHT22;11359;45.802;13.530;2022-08-18T14:53:24;30.70;79.20
22383;DHT22;11359;45.802;13.530;2022-08-18T14:55:51;30.80;78.20
22383;DHT22;11359;45.802;13.530;2022-08-18T14:58:18;31.00;77.60
22383;DHT22;11359;45.802;13.530;2022-08-18T15:00:44;31.10;77.20
22383;DHT22;11359;45.802;13.530;2022-08-18T15:03:10;31.30;77.00
22383;DHT22;11359;45.802;13.530;2022-08-18T15:05:36;31.50;76.90
22383;DHT22;11359;45.802;13.530;2022-08-18T15:08:03;31.70;76.50
22383;DHT22;11359;45.802;13.530;2022-08-18T15:10:29;31.90;75.90
22383;DHT22;11359;45.802;13.530;2022-08-18T15:12:55;32.10;74.90
22383;DHT22;11359;45.802;13.530;2022-08-18T15:15:22;32.20;74.60
22383;DHT22;11359;45.802;13.530;2022-08-18T15:17:50;32.40;72.80
22383;DHT22;11359;45.802;13.530;2022-08-18T15:20:15;32.50;72.00
22383;DHT22;11359;45.802;13.530;2022-08-18T15:22:43;32.50;71.30
22383;DHT22;11359;45.802;13.530;2022-08-18T15:25:28;32.60;70.70
22383;DHT22;11359;45.802;13.530;2022-08-18T15:28:20;32.80;70.20
22383;DHT22;11359;45.802;13.530;2022-08-18T15:30:48;32.90;69.20
22383;DHT22;11359;45.802;13.530;2022-08-18T15:33:15;32.90;68.20
22383;DHT22;11359;45.802;13.530;2022-08-18T15:35:42;33.00;67.30
22383;DHT22;11359;45.802;13.530;2022-08-18T15:38:09;33.10;66.50
22383;DHT22;11359;45.802;13.530;2022-08-18T15:40:38;33.10;65.90
22383;DHT22;11359;45.802;13.530;2022-08-18T15:43:11;33.20;65.50
22383;DHT22;11359;45.802;13.530;2022-08-18T15:45:40;33.20;65.00
22383;DHT22;11359;45.802;13.530;2022-08-18T15:48:09;33.30;64.20
22383;DHT22;11359;45.802;13.530;2022-08-18T15:50:35;33.30;63.00
22383;DHT22;11359;45.802;13.530;2022-08-18T15:53:03;33.30;62.00
22383;DHT22;11359;45.802;13.530;2022-08-18T15:55:31;33.20;60.90
22383;DHT22;11359;45.802;13.530;2022-08-18T15:57:58;33.10;59.90
22383;DHT22;11359;45.802;13.530;2022-08-18T16:00:27;33.00;59.50
22383;DHT22;11359;45.802;13.530;2022-08-18T16:02:55;32.80;59.20
22383;DHT22;11359;45.802;13.530;2022-08-18T16:05:25;32.70;59.00
22383;DHT22;11359;45.802;13.530;2022-08-18T16:07:53;32.50;58.70
22383;DHT22;11359;45.802;13.530;2022-08-18T16:10:22;32.40;58.50
22383;DHT22;11359;45.802;13.530;2022-08-18T16:12:48;32.30;58.30
22383;DHT22;11359;45.802;13.530;2022-08-18T16:15:21;32.20;58.20
22383;DHT22;11359;45.802;13.530;2022-08-18T16:17:48;32.10;58.30
22383;DHT22;11359;45.802;13.530;2022-08-18T16:20:14;32.00;58.30
22383;DHT22;11359;45.802;13.530;2022-08-18T16:22:40;31.90;58.20
22383;DHT22;11359;45.802;13.530;2022-08-18T16:25:07;31.80;58.00
22383;DHT22;11359;45.802;13.530;2022-08-18T16:27:34;31.70;57.80
22383;DHT22;11359;45.802;13.530;2022-08-18T16:30:01;31.70;57.80
22383;DHT22;11359;45.802;13.530;2022-08-18T16:32:30;31.70;57.80
22383;DHT22;11359;45.802;13.530;2022-08-18T16:34:56;31.60;57.80
22383;DHT22;11359;45.802;13.530;2022-08-18T16:37:24;31.50;57.60
22383;DHT22;11359;45.802;13.530;2022-08-18T16:39:52;31.50;57.30
22383;DHT22;11359;45.802;13.530;2022-08-18T16:42:18;31.40;56.90
22383;DHT22;11359;45.802;13.530;2022-08-18T16:44:44;31.30;56.80
22383;DHT22;11359;45.802;13.530;2022-08-18T16:47:11;31.30;56.60
22383;DHT22;11359;45.802;13.530;2022-08-18T16:49:45;31.20;56.50
22383;DHT22;11359;45.802;13.530;2022-08-18T16:52:13;31.20;56.30
22383;DHT22;11359;45.802;13.530;2022-08-18T16:54:41;31.10;56.20
22383;DHT22;11359;45.802;13.530;2022-08-18T16:57:06;31.10;56.10
22383;DHT22;11359;45.802;13.530;2022-08-18T16:59:32;31.00;56.10
22383;DHT22;11359;45.802;13.530;2022-08-18T17:02:16;31.00;56.10
22383;DHT22;11359;45.802;13.530;2022-08-18T17:05:00;30.90;56.20
22383;DHT22;11359;45.802;13.530;2022-08-18T17:07:28;30.90;56.20
22383;DHT22;11359;45.802;13.530;2022-08-18T17:09:54;30.90;56.00
22383;DHT22;11359;45.802;13.530;2022-08-18T17:12:21;30.80;55.90
22383;DHT22;11359;45.802;13.530;2022-08-18T17:14:47;30.80;55.70
22383;DHT22;11359;45.802;13.530;2022-08-18T17:17:13;30.80;55.50
22383;DHT22;11359;45.802;13.530;2022-08-18T17:19:43;30.70;55.40
22383;DHT22;11359;45.802;13.530;2022-08-18T17:22:10;30.70;55.20
22383;DHT22;11359;45.802;13.530;2022-08-18T17:24:36;30.60;55.10
22383;DHT22;11359;45.802;13.530;2022-08-18T17:27:19;30.60;55.00
22383;DHT22;11359;45.802;13.530;2022-08-18T17:29:52;30.50;54.90
22383;DHT22;11359;45.802;13.530;2022-08-18T17:32:59;30.40;54.80
22383;DHT22;11359;45.802;13.530;2022-08-18T17:35:28;30.40;54.70
22383;DHT22;11359;45.802;13.530;2022-08-18T17:38:09;30.30;54.60
22383;DHT22;11359;45.802;13.530;2022-08-18T17:40:39;30.30;54.60
22383;DHT22;11359;45.802;13.530;2022-08-18T17:43:11;30.20;54.50
22383;DHT22;11359;45.802;13.530;2022-08-18T17:45:39;30.10;54.50
22383;DHT22;11359;45.802;13.530;2022-08-18T17:48:13;30.10;54.50
22383;DHT22;11359;45.802;13.530;2022-08-18T17:51:01;30.00;54.40
22383;DHT22;11359;45.802;13.530;2022-08-18T17:53:47;29.90;54.40
22383;DHT22;11359;45.802;13.530;2022-08-18T17:56:15;29.90;54.40
22383;DHT22;11359;45.802;13.530;2022-08-18T18:01:13;29.80;54.30
22383;DHT22;11359;45.802;13.530;2022-08-18T18:03:39;29.70;54.30
22383;DHT22;11359;45.802;13.530;2022-08-18T18:09:03;29.60;54.30
22383;DHT22;11359;45.802;13.530;2022-08-18T18:11:32;29.60;54.40
22383;DHT22;11359;45.802;13.530;2022-08-18T18:14:00;29.50;54.40
22383;DHT22;11359;45.802;13.530;2022-08-18T18:17:19;29.40;54.40
22383;DHT22;11359;45.802;13.530;2022-08-18T18:22:39;29.40;54.70
22383;DHT22;11359;45.802;13.530;2022-08-18T18:25:07;29.30;54.90
22383;DHT22;11359;45.802;13.530;2022-08-18T18:33:11;29.20;55.10
22383;DHT22;11359;45.802;13.530;2022-08-18T18:35:52;29.10;55.10
22383;DHT22;11359;45.802;13.530;2022-08-18T18:38:28;29.10;55.30